Hauptseite
METAR-TAF:

METAR-TAF

Flughäfen :

Harrisburg, Pennsylvania, Vereinigte Staaten

Breite: 40-13-02N, Länge: 076-51-05W, Höhe: 106 m

Beobachtung

Neuester Wetterbericht von vor 1 Stunde und 5 Minuten, um 20:56 UTC
Wind 3 kt aus unterschiedlichen Richtungen
Temperatur 9°C
Luftfeuchtigkeit 87%
Luftdruck 1009 hPa
Sichtweite: 6.4 km
Geschlossene Wolkendecke in der Höhe von 1200 ft
Leichtregen

METAR: KCXY 092056Z VRB03KT 4SM -RA OVC012 09/07 A2981 RMK AO2 SLP098 P0005 60015 T00940067 56037

Zeit: 17:01 (22:01 UTC)


TAF: fehlend

Wetterbeobachtungen und Prognosen von mehr als 4000 Flughäfen (METAR und TAF Bericht).

Die verfügbaren Stationen werden durch gelbe und rote Markierungen auf der Karte dargestellt.

Führen Sie die Maus auf sie, um den Namen der Station zu sehen.

Darauf klicken, um die Beobachtung von Wetterbeobachtungen und Prognosen zu sehen.

Um die Karte zu ändern : klicken Sie auf den grünen Tasten mit einem schwarzen Kreuz Zum Vergrößern, auf den grünen Button mit einem Gedankenstrich zu verkleinern, oder auf die grünen Pfeile für benachbarte Karten.


METAR-TAF: